createdAt,value
2023-02-08T00:01:49.077Z,102657.66
2023-02-08T00:04:15.562Z,102660.03
2023-02-08T00:06:42.105Z,102655.88
2023-02-08T00:09:09.117Z,102659.44
2023-02-08T00:11:35.745Z,102656.25
2023-02-08T00:14:02.283Z,102658.47
2023-02-08T00:16:28.784Z,102658.84
2023-02-08T00:18:56.311Z,102663.03
2023-02-08T00:21:22.800Z,102663.94
2023-02-08T00:23:49.375Z,102670.47
2023-02-08T00:26:16.123Z,102673.06
2023-02-08T00:28:42.608Z,102678.47
2023-02-08T00:31:09.210Z,102680.88
2023-02-08T00:33:35.779Z,102690.16
2023-02-08T00:36:03.405Z,102687.69
2023-02-08T00:38:30.354Z,102696.59
2023-02-08T00:40:56.949Z,102694.81
2023-02-08T00:43:23.438Z,102692.53
2023-02-08T00:45:57.000Z,102695.50
2023-02-08T00:48:23.491Z,102693.44
2023-02-08T00:51:00.225Z,102687.50
2023-02-08T00:53:26.716Z,102683.63
2023-02-08T00:55:56.668Z,102683.34
2023-02-08T00:58:23.559Z,102686.78
2023-02-08T01:00:53.601Z,102678.78
2023-02-08T01:03:21.057Z,102677.19
2023-02-08T01:05:47.705Z,102679.78
2023-02-08T01:08:14.386Z,102673.16
2023-02-08T01:10:41.245Z,102673.91
2023-02-08T01:13:07.981Z,102673.50
2023-02-08T01:15:34.571Z,102666.00
2023-02-08T01:18:01.126Z,102659.34
2023-02-08T01:20:27.650Z,102655.88
2023-02-08T01:22:54.107Z,102659.97
2023-02-08T01:25:20.640Z,102665.78
2023-02-08T01:27:47.281Z,102656.28
2023-02-08T01:30:14.059Z,102661.53
2023-02-08T01:32:40.526Z,102666.69
2023-02-08T01:35:07.160Z,102663.72
2023-02-08T01:37:33.646Z,102656.50
2023-02-08T01:40:00.164Z,102662.25
2023-02-08T01:42:26.778Z,102664.22
2023-02-08T01:45:11.804Z,102659.47
2023-02-08T01:47:38.699Z,102663.50
2023-02-08T01:50:05.233Z,102658.88
2023-02-08T01:52:31.688Z,102665.03
2023-02-08T01:55:12.038Z,102656.91
2023-02-08T01:57:38.585Z,102656.28
2023-02-08T02:00:12.312Z,102652.03
2023-02-08T02:02:39.246Z,102653.91
2023-02-08T02:05:06.373Z,102652.91
2023-02-08T02:07:32.906Z,102656.78
2023-02-08T02:10:08.989Z,102661.03
2023-02-08T02:12:36.701Z,102649.34
2023-02-08T02:15:03.491Z,102660.72
2023-02-08T02:17:30.153Z,102659.72
2023-02-08T02:20:08.929Z,102664.19
2023-02-08T02:22:50.695Z,102673.16
2023-02-08T02:25:36.158Z,102677.22
2023-02-08T02:28:20.661Z,102677.88
2023-02-08T02:31:07.508Z,102674.09
2023-02-08T02:33:37.052Z,102687.94
2023-02-08T02:36:09.281Z,102684.69
2023-02-08T02:38:54.238Z,102690.53
2023-02-08T02:41:51.784Z,102687.59
2023-02-08T02:44:35.521Z,102697.91
2023-02-08T02:47:25.078Z,102695.72
2023-02-08T02:50:02.101Z,102695.88
2023-02-08T02:52:34.459Z,102695.50
2023-02-08T02:55:04.979Z,102703.72
2023-02-08T02:57:32.663Z,102712.13
2023-02-08T02:59:59.870Z,102719.47
2023-02-08T03:02:29.400Z,102724.16
2023-02-08T03:04:57.196Z,102731.78
2023-02-08T03:07:50.202Z,102726.63
2023-02-08T03:10:40.244Z,102731.06
2023-02-08T03:13:25.392Z,102728.50
2023-02-08T03:15:54.705Z,102726.97
2023-02-08T03:18:21.119Z,102731.38
2023-02-08T03:20:55.434Z,102727.28
2023-02-08T03:23:27.976Z,102732.81
2023-02-08T03:25:54.447Z,102733.13
2023-02-08T03:28:24.025Z,102738.78
2023-02-08T03:31:23.241Z,102735.78
2023-02-08T03:33:56.772Z,102735.66
2023-02-08T03:36:38.638Z,102740.66
2023-02-08T03:39:07.215Z,102745.13
2023-02-08T03:41:35.897Z,102750.28
2023-02-08T03:44:05.396Z,102755.63
2023-02-08T03:46:38.456Z,102761.69
2023-02-08T03:49:09.852Z,102763.84
2023-02-08T03:51:39.110Z,102764.81
2023-02-08T03:54:07.880Z,102772.22
2023-02-08T03:56:45.910Z,102772.31
2023-02-08T03:59:15.515Z,102777.00
2023-02-08T04:01:44.797Z,102772.38
2023-02-08T04:04:12.709Z,102773.47
2023-02-08T04:06:39.212Z,102779.00
2023-02-08T04:09:05.890Z,102791.19
2023-02-08T04:11:32.519Z,102787.88
2023-02-08T04:13:59.054Z,102801.97
2023-02-08T04:16:25.520Z,102798.34
2023-02-08T04:18:52.031Z,102799.34
2023-02-08T04:21:18.478Z,102803.41
2023-02-08T04:23:44.920Z,102796.28
2023-02-08T04:26:11.428Z,102806.09
2023-02-08T04:28:37.857Z,102801.91
2023-02-08T04:31:04.525Z,102808.66
2023-02-08T04:33:31.098Z,102811.97
2023-02-08T04:35:57.578Z,102819.19
2023-02-08T04:38:24.048Z,102825.16
2023-02-08T04:40:50.576Z,102824.16
2023-02-08T04:43:17.037Z,102820.78
2023-02-08T04:45:43.521Z,102825.16
2023-02-08T04:48:11.917Z,102832.19
2023-02-08T04:50:38.930Z,102839.03
2023-02-08T04:53:06.525Z,102835.38
2023-02-08T04:55:33.375Z,102836.25
2023-02-08T04:57:59.871Z,102837.97
2023-02-08T05:00:26.632Z,102845.91
2023-02-08T05:02:54.239Z,102851.84
2023-02-08T05:05:20.754Z,102857.63
2023-02-08T05:07:47.288Z,102858.25
2023-02-08T05:10:13.836Z,102861.81
2023-02-08T05:12:40.306Z,102866.75
2023-02-08T05:15:06.898Z,102870.22
2023-02-08T05:17:33.426Z,102871.91
2023-02-08T05:19:59.990Z,102880.25
2023-02-08T05:22:26.645Z,102881.16
2023-02-08T05:24:53.112Z,102877.94
2023-02-08T05:27:19.574Z,102890.97
2023-02-08T05:29:46.015Z,102890.00
2023-02-08T05:32:12.906Z,102892.19
2023-02-08T05:34:39.441Z,102888.94
2023-02-08T05:37:05.986Z,102887.84
2023-02-08T05:39:32.566Z,102894.44
2023-02-08T05:41:59.054Z,102895.59
2023-02-08T05:44:25.653Z,102903.63
2023-02-08T05:46:52.163Z,102901.94
2023-02-08T05:49:18.762Z,102909.06
2023-02-08T05:51:45.277Z,102913.72
2023-02-08T05:54:12.044Z,102905.28
2023-02-08T05:56:38.530Z,102909.75
2023-02-08T05:59:05.028Z,102915.44
2023-02-08T06:01:31.888Z,102924.66
2023-02-08T06:03:59.379Z,102927.44
2023-02-08T06:06:25.924Z,102925.56
2023-02-08T06:08:52.424Z,102928.75
2023-02-08T06:11:19.524Z,102938.56
2023-02-08T06:13:46.261Z,102940.53
2023-02-08T06:16:13.203Z,102939.06
2023-02-08T06:18:40.033Z,102947.56
2023-02-08T06:21:06.772Z,102947.38
2023-02-08T06:23:33.273Z,102946.22
2023-02-08T06:25:59.700Z,102939.88
2023-02-08T06:28:26.201Z,102945.94
2023-02-08T06:30:52.999Z,102947.81
2023-02-08T06:33:19.481Z,102938.25
2023-02-08T06:35:46.735Z,102940.50
2023-02-08T06:38:13.581Z,102937.69
2023-02-08T06:40:40.281Z,102946.00
2023-02-08T06:43:06.881Z,102953.22
2023-02-08T06:45:33.483Z,102947.16
2023-02-08T06:50:38.289Z,102949.59
2023-02-08T06:53:04.906Z,102950.69
2023-02-08T06:55:31.376Z,102952.28
2023-02-08T06:57:57.928Z,102946.91
2023-02-08T07:00:24.538Z,102949.13
2023-02-08T07:02:52.527Z,102951.38
2023-02-08T07:05:19.299Z,102946.28
2023-02-08T07:07:48.497Z,102949.06
2023-02-08T07:10:15.477Z,102951.81
2023-02-08T07:12:42.074Z,102947.91
2023-02-08T07:15:08.861Z,102959.13
2023-02-08T07:17:35.425Z,102965.94
2023-02-08T07:20:01.959Z,102965.94
2023-02-08T07:22:28.426Z,102957.28
2023-02-08T07:24:55.108Z,102968.09
2023-02-08T07:27:21.622Z,102964.31
2023-02-08T07:29:48.267Z,102967.09
2023-02-08T07:32:14.765Z,102956.56
2023-02-08T07:34:41.292Z,102966.31
2023-02-08T07:37:08.259Z,102968.91
2023-02-08T07:39:34.794Z,102958.28
2023-02-08T07:42:01.307Z,102954.22
2023-02-08T07:44:27.765Z,102959.84
2023-02-08T07:46:54.543Z,102957.06
2023-02-08T07:49:20.986Z,102971.69
2023-02-08T07:51:47.444Z,102971.06
2023-02-08T07:54:13.916Z,102985.06
2023-02-08T07:56:40.458Z,102980.59
2023-02-08T07:59:06.975Z,102980.69
2023-02-08T08:01:33.500Z,102971.84
2023-02-08T08:04:00.001Z,102975.44
2023-02-08T08:06:26.552Z,102977.28
2023-02-08T08:08:53.804Z,102979.69
2023-02-08T08:11:21.069Z,102977.22
2023-02-08T08:13:47.969Z,102988.47
2023-02-08T08:16:14.483Z,102990.44
2023-02-08T08:18:41.009Z,102995.16
2023-02-08T08:21:07.774Z,102994.59
2023-02-08T08:23:36.195Z,102992.38
2023-02-08T08:26:29.911Z,102998.09
2023-02-08T08:28:56.385Z,103000.69
2023-02-08T08:31:23.027Z,103005.31
2023-02-08T08:33:49.761Z,103000.59
2023-02-08T08:36:16.553Z,103008.34
2023-02-08T08:38:43.149Z,103019.69
2023-02-08T08:41:10.938Z,103018.31
2023-02-08T08:43:37.503Z,103019.03
2023-02-08T08:46:05.708Z,103018.41
2023-02-08T08:48:32.833Z,103030.88
2023-02-08T08:50:59.277Z,103024.56
2023-02-08T08:53:25.975Z,103029.69
2023-02-08T08:55:52.841Z,103037.91
2023-02-08T08:58:19.282Z,103032.47
2023-02-08T09:00:45.804Z,103039.84
2023-02-08T09:03:12.535Z,103040.28
2023-02-08T09:05:39.173Z,103037.34
2023-02-08T09:08:06.354Z,103044.41
2023-02-08T09:10:33.418Z,103046.91
2023-02-08T09:12:59.942Z,103043.97
2023-02-08T09:15:26.497Z,103045.63
2023-02-08T09:17:53.142Z,103039.31
2023-02-08T09:20:19.596Z,103048.75
2023-02-08T09:22:46.040Z,103056.81
2023-02-08T09:25:12.561Z,103050.81
2023-02-08T09:27:39.054Z,103052.38
2023-02-08T09:30:05.796Z,103051.72
2023-02-08T09:32:36.781Z,103053.13
2023-02-08T09:35:03.938Z,103047.97
2023-02-08T09:37:30.489Z,103044.78
2023-02-08T09:40:00.178Z,103047.50
2023-02-08T09:42:29.785Z,103043.50
2023-02-08T09:44:56.234Z,103037.50
2023-02-08T09:47:28.779Z,103036.13
2023-02-08T09:50:04.277Z,103026.66
2023-02-08T09:52:35.291Z,103016.22
2023-02-08T09:55:04.238Z,103014.59
2023-02-08T09:57:34.107Z,103006.22
2023-02-08T10:00:02.790Z,103006.81
2023-02-08T10:02:30.408Z,103009.81
2023-02-08T10:05:07.783Z,103006.81
2023-02-08T10:07:34.643Z,102994.22
2023-02-08T10:10:06.667Z,103001.41
2023-02-08T10:12:33.124Z,102994.75
2023-02-08T10:15:10.479Z,102984.38
2023-02-08T10:17:45.719Z,102981.19
2023-02-08T10:20:28.789Z,102992.56
2023-02-08T10:22:58.339Z,102989.13
2023-02-08T10:25:43.177Z,102977.78
2023-02-08T10:28:18.779Z,102975.16
2023-02-08T10:31:02.815Z,102960.28
2023-02-08T10:33:40.485Z,102972.75
2023-02-08T10:36:28.408Z,102974.72
2023-02-08T10:38:56.496Z,102967.69
2023-02-08T10:41:36.975Z,102963.25
2023-02-08T10:44:20.895Z,102964.13
2023-02-08T10:46:55.216Z,102954.47
2023-02-08T10:49:32.254Z,102955.09
2023-02-08T10:51:58.968Z,102959.16
2023-02-08T10:54:25.631Z,102952.50
2023-02-08T10:57:01.116Z,102951.25
2023-02-08T10:59:34.995Z,102956.47
2023-02-08T11:02:04.236Z,102957.72
2023-02-08T11:04:32.766Z,102950.25
2023-02-08T11:07:18.993Z,102940.53
2023-02-08T11:09:48.193Z,102943.69
2023-02-08T11:12:19.763Z,102940.22
2023-02-08T11:14:51.730Z,102940.66
2023-02-08T11:17:26.311Z,102932.53
2023-02-08T11:19:53.184Z,102936.38
2023-02-08T11:22:23.734Z,102932.59
2023-02-08T11:25:10.845Z,102934.06
2023-02-08T11:27:46.305Z,102936.06
2023-02-08T11:30:15.903Z,102928.47
2023-02-08T11:32:48.204Z,102922.91
2023-02-08T11:35:22.748Z,102922.94
2023-02-08T11:37:57.395Z,102924.53
2023-02-08T11:40:43.456Z,102924.53
2023-02-08T11:43:23.068Z,102929.88
2023-02-08T11:45:50.170Z,102920.03
2023-02-08T11:48:35.390Z,102926.47
2023-02-08T11:51:03.477Z,102934.19
2023-02-08T11:53:33.597Z,102916.91
2023-02-08T11:56:03.201Z,102917.50
2023-02-08T11:58:30.149Z,102912.19
2023-02-08T12:00:59.721Z,102923.00
2023-02-08T12:03:35.657Z,102912.47
2023-02-08T12:06:30.179Z,102911.13
2023-02-08T12:09:22.551Z,102920.09
2023-02-08T12:11:59.165Z,102918.13
2023-02-08T12:14:45.823Z,102916.97
2023-02-08T12:17:28.168Z,102908.81
2023-02-08T12:20:08.274Z,102904.78
2023-02-08T12:22:39.616Z,102912.41
2023-02-08T12:25:18.271Z,102911.41
2023-02-08T12:28:04.836Z,102915.28
2023-02-08T12:30:45.183Z,102919.03
2023-02-08T12:33:23.858Z,102925.94
2023-02-08T12:36:04.109Z,102933.16
2023-02-08T12:39:19.411Z,102928.78
2023-02-08T12:41:53.307Z,102936.78
2023-02-08T12:44:38.638Z,102932.72
2023-02-08T12:47:09.662Z,102938.56
2023-02-08T12:49:54.320Z,102941.78
2023-02-08T12:52:25.966Z,102931.00
2023-02-08T12:54:52.541Z,102944.13
2023-02-08T12:57:23.194Z,102954.03
2023-02-08T12:59:49.723Z,102952.66
2023-02-08T13:02:31.638Z,102945.25
2023-02-08T13:05:01.501Z,102942.03
2023-02-08T13:07:31.646Z,102948.28
2023-02-08T13:10:28.953Z,102940.25
2023-02-08T13:12:58.763Z,102954.22
2023-02-08T13:15:31.259Z,102957.34
2023-02-08T13:18:20.325Z,102952.69
2023-02-08T13:20:49.776Z,102948.69
2023-02-08T13:23:25.333Z,102964.72
2023-02-08T13:25:56.010Z,102955.38
2023-02-08T13:28:24.396Z,102961.75
2023-02-08T13:30:56.864Z,102961.19
2023-02-08T13:33:30.709Z,102947.34
2023-02-08T13:35:58.298Z,102958.84
2023-02-08T13:38:27.512Z,102950.81
2023-02-08T13:41:09.058Z,102956.31
2023-02-08T13:43:42.390Z,102955.25
2023-02-08T13:46:10.529Z,102964.53
